»·PEaware :: N105MS KSBA-KRNO

N105MS :: KSBA-KRNO

FLIGHT INFORMATION

Flight Status: Arrived
Operator: Privately registered:
United States
More flights under this callsign
Pilot: Mike T. (22952)
Aircraft: BEECH AIRCRAFT SUPER KING AIR COMMUTER
(BE20)
More flights by this aircraft type
Origin: KSBA Santa Barbara Mun
United States
Destination: KRNO Reno/Tahoe Intl
United States
More flights between these airports :: More routes between these airports
Route: AVE CZQ SHVVR FMG
File this flight plan on PilotEdge
Remarks:
Altitude:
(Current/Filed)
28,000ft
Speed:
(Current/Filed)
240kts
Departed: 08-Feb-20 03:21 PM
Arrived: 08-Feb-20 04:37 PM
Distance/Time
Traveled:
305nm/1:16
Distance/Time
To Go:
Arrived

Flight Plot

Page will automatically refresh every two minutes.

Flight plan parsing failed; only flown route is shown


Map Options




Map Legend


Flown Route
Filed Route
Departure Airport
Arrival Airport
Navaid (VOR, NDB)
Fix

Horizontal Profiles

Position Reports

Time Latitude Longitude Heading Altitude Ground
Speed
08-Feb-20 15:02 34.422677 -119.835598 340 16ft 0kts
08-Feb-20 15:03 34.422677 -119.835598 340 16ft 0kts
08-Feb-20 15:04 34.422677 -119.835598 340 16ft 0kts
08-Feb-20 15:04 34.422677 -119.835598 340 16ft 0kts
08-Feb-20 15:06 34.422677 -119.835598 340 16ft 0kts
08-Feb-20 15:07 34.422677 -119.835598 340 16ft 0kts
08-Feb-20 15:07 34.422677 -119.835598 340 16ft 0kts
08-Feb-20 15:08 34.422677 -119.835598 340 16ft 0kts
08-Feb-20 15:09 34.422677 -119.835598 340 16ft 0kts
08-Feb-20 15:10 34.422677 -119.835598 340 16ft 0kts
08-Feb-20 15:11 34.422677 -119.835598 340 16ft 0kts
08-Feb-20 15:12 34.422677 -119.835598 340 16ft 0kts
08-Feb-20 15:13 34.422677 -119.835598 340 16ft 0kts
08-Feb-20 15:14 34.422677 -119.835598 340 16ft 0kts
08-Feb-20 15:15 34.422790 -119.837094 305 16ft 8kts
08-Feb-20 15:16 34.427220 -119.838515 345 16ft 18kts
08-Feb-20 15:17 34.430690 -119.839703 308 16ft 0kts
08-Feb-20 15:18 34.430690 -119.839703 308 16ft 0kts
08-Feb-20 15:19 34.430649 -119.840337 172 16ft 3kts
08-Feb-20 15:20 34.403594 -119.831899 164 1606ft 187kts
08-Feb-20 15:21 34.347742 -119.821040 195 4038ft 207kts
08-Feb-20 15:22 34.321286 -119.879740 264 6211ft 216kts
08-Feb-20 15:23 34.314064 -119.953294 265 7977ft 223kts
08-Feb-20 15:24 34.320248 -120.023445 333 9146ft 234kts
08-Feb-20 15:25 34.378391 -120.025149 5 11199ft 208kts
08-Feb-20 15:26 34.435051 -120.022462 4 12953ft 205kts
08-Feb-20 15:27 34.491277 -120.020633 2 14409ft 223kts
08-Feb-20 15:28 34.557834 -120.018087 4 15887ft 252kts
08-Feb-20 15:29 34.630457 -120.015442 2 17262ft 269kts
08-Feb-20 15:30 34.705688 -120.013319 358 18449ft 273kts
08-Feb-20 15:31 34.779350 -120.010377 357 20045ft 250kts
08-Feb-20 15:32 34.844313 -120.007990 356 21660ft 224kts
08-Feb-20 15:33 34.905329 -120.005785 355 22943ft 216kts
08-Feb-20 15:34 34.965731 -120.003544 355 23929ft 218kts
08-Feb-20 15:35 35.025771 -120.001331 354 24900ft 215kts
08-Feb-20 15:36 35.085061 -119.999174 354 25800ft 213kts
08-Feb-20 15:37 35.144180 -119.997020 354 26578ft 213kts
08-Feb-20 15:38 35.202648 -119.994873 354 27347ft 209kts
08-Feb-20 15:39 35.259820 -119.992709 352 28093ft 204kts
08-Feb-20 15:40 35.320584 -119.990595 353 28135ft 236kts
08-Feb-20 15:41 35.389274 -119.988101 354 28128ft 257kts
08-Feb-20 15:42 35.462044 -119.985416 354 28125ft 265kts
08-Feb-20 15:43 35.536086 -119.982684 357 28115ft 268kts
08-Feb-20 15:44 35.610895 -119.979918 0 28116ft 271kts
08-Feb-20 15:45 35.685997 -119.973809 6 28120ft 273kts
08-Feb-20 15:46 35.761721 -119.963656 6 28120ft 276kts
08-Feb-20 15:47 35.838551 -119.953584 6 28112ft 279kts
08-Feb-20 15:48 35.915819 -119.943466 5 28110ft 279kts
08-Feb-20 15:49 35.992651 -119.933388 5 28109ft 278kts
08-Feb-20 15:50 36.069252 -119.923329 5 28109ft 277kts
08-Feb-20 15:51 36.145380 -119.913316 5 28109ft 276kts
08-Feb-20 15:52 36.221628 -119.903262 4 28108ft 276kts
08-Feb-20 15:53 36.298295 -119.893139 4 28108ft 278kts
08-Feb-20 15:54 36.375211 -119.882961 4 28109ft 280kts
08-Feb-20 15:55 36.452589 -119.872705 4 28108ft 279kts
08-Feb-20 15:56 36.529462 -119.862494 4 28108ft 279kts
08-Feb-20 15:57 36.606454 -119.852238 4 28108ft 278kts
08-Feb-20 15:58 36.683040 -119.842022 4 28110ft 278kts
08-Feb-20 15:59 36.760004 -119.831733 5 28110ft 279kts
08-Feb-20 16:00 36.837380 -119.821368 6 28077ft 282kts
08-Feb-20 16:01 36.915584 -119.816177 2 28071ft 283kts
08-Feb-20 16:02 36.994403 -119.814850 0 28074ft 284kts
08-Feb-20 16:03 37.073303 -119.814304 0 28090ft 284kts
08-Feb-20 16:04 37.152402 -119.813921 0 28090ft 285kts
08-Feb-20 16:05 37.231653 -119.813554 0 28090ft 286kts
08-Feb-20 16:06 37.310830 -119.808903 3 28090ft 286kts
08-Feb-20 16:07 37.390027 -119.803507 3 28090ft 286kts
08-Feb-20 16:08 37.469543 -119.798170 3 28090ft 286kts
08-Feb-20 16:09 37.548863 -119.792854 3 28090ft 286kts
08-Feb-20 16:10 37.628430 -119.787509 3 28090ft 286kts
08-Feb-20 16:11 37.707411 -119.782185 3 28090ft 286kts
08-Feb-20 16:12 37.786846 -119.776823 3 28090ft 287kts
08-Feb-20 16:13 37.866362 -119.771444 3 28091ft 286kts
08-Feb-20 16:14 37.945023 -119.766113 3 28090ft 280kts
08-Feb-20 16:15 38.021823 -119.760880 3 28089ft 274kts
08-Feb-20 16:16 38.097251 -119.755748 3 28089ft 269kts
08-Feb-20 16:17 38.173220 -119.750569 3 27312ft 278kts
08-Feb-20 16:18 38.250756 -119.745271 357 26297ft 285kts
08-Feb-20 16:19 38.333578 -119.739674 356 25291ft 315kts
08-Feb-20 16:20 38.424771 -119.733415 359 24312ft 340kts
08-Feb-20 16:21 38.520693 -119.726803 1 23350ft 352kts
08-Feb-20 16:22 38.618943 -119.720002 2 22394ft 356kts
08-Feb-20 16:23 38.717059 -119.713195 2 21216ft 352kts
08-Feb-20 16:24 38.813531 -119.706468 0 19289ft 342kts
08-Feb-20 16:25 38.904930 -119.700069 358 17290ft 319kts
08-Feb-20 16:26 38.990301 -119.694105 358 15279ft 297kts
08-Feb-20 16:27 39.067198 -119.688731 358 13891ft 250kts
08-Feb-20 16:28 39.129128 -119.704307 325 12856ft 223kts
08-Feb-20 16:29 39.181392 -119.746272 325 11466ft 228kts
08-Feb-20 16:30 39.240666 -119.769691 356 9470ft 233kts
08-Feb-20 16:31 39.298429 -119.769608 356 8687ft 182kts
08-Feb-20 16:32 39.345539 -119.769547 356 7656ft 157kts
08-Feb-20 16:33 39.386952 -119.769626 355 6720ft 145kts
08-Feb-20 16:34 39.427587 -119.769355 356 5737ft 140kts
08-Feb-20 16:35 39.465942 -119.769314 358 4916ft 134kts
08-Feb-20 16:36 39.494719 -119.769275 0 4408ft 40kts
08-Feb-20 16:37 39.497361 -119.770410 269 4409ft 0kts
08-Feb-20 16:38 39.498610 -119.771520 357 4412ft 14kts
08-Feb-20 16:39 39.502267 -119.771508 359 4415ft 9kts
08-Feb-20 16:40 39.503747 -119.773629 271 4415ft 3kts
08-Feb-20 16:41 39.503748 -119.773680 272 4415ft 0kts

Navigation Log

Ident Type
Flight plan parsing failed, navigation log unavailable